sensor_id;sensor_type;location;lat;lon;timestamp;P1;durP1;ratioP1;P2;durP2;ratioP2
22072;SDS011;11202;50.916;4.698;2022-12-24T00:01:24;35.35;;;5.05;;
22072;SDS011;11202;50.916;4.698;2022-12-24T00:03:52;33.60;;;6.55;;
22072;SDS011;11202;50.916;4.698;2022-12-24T00:06:19;30.13;;;4.65;;
22072;SDS011;11202;50.916;4.698;2022-12-24T00:08:46;35.35;;;6.22;;
22072;SDS011;11202;50.916;4.698;2022-12-24T00:11:15;33.08;;;5.15;;
22072;SDS011;11202;50.916;4.698;2022-12-24T00:13:41;23.70;;;4.50;;
22072;SDS011;11202;50.916;4.698;2022-12-24T00:16:07;24.65;;;4.50;;
22072;SDS011;11202;50.916;4.698;2022-12-24T00:18:33;26.08;;;4.50;;
22072;SDS011;11202;50.916;4.698;2022-12-24T00:20:59;30.27;;;5.20;;
22072;SDS011;11202;50.916;4.698;2022-12-24T00:23:28;27.80;;;4.72;;
22072;SDS011;11202;50.916;4.698;2022-12-24T00:25:54;26.35;;;4.32;;
22072;SDS011;11202;50.916;4.698;2022-12-24T00:28:20;28.15;;;4.45;;
22072;SDS011;11202;50.916;4.698;2022-12-24T00:30:46;41.92;;;6.40;;
22072;SDS011;11202;50.916;4.698;2022-12-24T00:33:12;30.80;;;5.80;;
22072;SDS011;11202;50.916;4.698;2022-12-24T00:35:38;30.77;;;5.38;;
22072;SDS011;11202;50.916;4.698;2022-12-24T00:38:04;30.65;;;4.78;;
22072;SDS011;11202;50.916;4.698;2022-12-24T00:40:31;24.38;;;3.75;;
22072;SDS011;11202;50.916;4.698;2022-12-24T00:43:00;39.57;;;5.43;;
22072;SDS011;11202;50.916;4.698;2022-12-24T00:45:25;33.22;;;5.68;;
22072;SDS011;11202;50.916;4.698;2022-12-24T00:47:52;33.55;;;4.90;;
22072;SDS011;11202;50.916;4.698;2022-12-24T00:50:20;25.63;;;4.22;;
22072;SDS011;11202;50.916;4.698;2022-12-24T00:52:46;16.88;;;3.42;;
22072;SDS011;11202;50.916;4.698;2022-12-24T00:55:11;27.23;;;5.07;;
22072;SDS011;11202;50.916;4.698;2022-12-24T00:57:37;20.98;;;4.35;;
22072;SDS011;11202;50.916;4.698;2022-12-24T01:00:03;40.47;;;5.20;;
22072;SDS011;11202;50.916;4.698;2022-12-24T01:02:30;33.92;;;4.82;;
22072;SDS011;11202;50.916;4.698;2022-12-24T01:04:56;25.80;;;4.28;;
22072;SDS011;11202;50.916;4.698;2022-12-24T01:07:38;27.67;;;4.65;;
22072;SDS011;11202;50.916;4.698;2022-12-24T01:10:06;20.70;;;3.85;;
22072;SDS011;11202;50.916;4.698;2022-12-24T01:12:32;37.35;;;5.15;;
22072;SDS011;11202;50.916;4.698;2022-12-24T01:14:58;24.40;;;4.70;;
22072;SDS011;11202;50.916;4.698;2022-12-24T01:17:24;23.48;;;4.40;;
22072;SDS011;11202;50.916;4.698;2022-12-24T01:19:49;24.73;;;4.55;;
22072;SDS011;11202;50.916;4.698;2022-12-24T01:22:16;32.38;;;4.38;;
22072;SDS011;11202;50.916;4.698;2022-12-24T01:24:41;31.45;;;4.90;;
22072;SDS011;11202;50.916;4.698;2022-12-24T01:27:07;36.72;;;5.65;;
22072;SDS011;11202;50.916;4.698;2022-12-24T01:29:33;27.48;;;4.40;;
22072;SDS011;11202;50.916;4.698;2022-12-24T01:31:59;33.40;;;5.68;;
22072;SDS011;11202;50.916;4.698;2022-12-24T01:34:25;34.58;;;5.75;;
22072;SDS011;11202;50.916;4.698;2022-12-24T01:36:50;29.70;;;4.95;;
22072;SDS011;11202;50.916;4.698;2022-12-24T01:39:16;27.38;;;4.60;;
22072;SDS011;11202;50.916;4.698;2022-12-24T01:41:42;28.17;;;4.72;;
22072;SDS011;11202;50.916;4.698;2022-12-24T01:44:30;28.58;;;4.70;;
22072;SDS011;11202;50.916;4.698;2022-12-24T01:47:03;25.42;;;4.00;;
22072;SDS011;11202;50.916;4.698;2022-12-24T01:49:30;24.15;;;4.57;;
22072;SDS011;11202;50.916;4.698;2022-12-24T01:51:58;29.75;;;4.47;;
22072;SDS011;11202;50.916;4.698;2022-12-24T01:54:29;25.67;;;4.60;;
22072;SDS011;11202;50.916;4.698;2022-12-24T01:57:07;27.70;;;3.97;;
22072;SDS011;11202;50.916;4.698;2022-12-24T01:59:39;39.67;;;4.18;;
22072;SDS011;11202;50.916;4.698;2022-12-24T02:02:07;25.88;;;4.00;;
22072;SDS011;11202;50.916;4.698;2022-12-24T02:04:49;22.38;;;3.78;;
22072;SDS011;11202;50.916;4.698;2022-12-24T02:07:24;23.30;;;4.13;;
22072;SDS011;11202;50.916;4.698;2022-12-24T02:09:55;26.20;;;4.10;;
22072;SDS011;11202;50.916;4.698;2022-12-24T02:12:23;24.05;;;3.72;;
22072;SDS011;11202;50.916;4.698;2022-12-24T02:14:51;25.00;;;4.28;;
22072;SDS011;11202;50.916;4.698;2022-12-24T02:26:06;29.52;;;5.20;;
22072;SDS011;11202;50.916;4.698;2022-12-24T02:29:10;24.38;;;4.40;;
22072;SDS011;11202;50.916;4.698;2022-12-24T02:34:35;45.63;;;6.57;;
22072;SDS011;11202;50.916;4.698;2022-12-24T02:37:17;35.75;;;5.95;;
22072;SDS011;11202;50.916;4.698;2022-12-24T02:42:24;46.95;;;6.18;;
22072;SDS011;11202;50.916;4.698;2022-12-24T02:45:04;32.88;;;6.28;;
22072;SDS011;11202;50.916;4.698;2022-12-24T02:47:33;37.45;;;6.28;;
22072;SDS011;11202;50.916;4.698;2022-12-24T02:49:59;34.85;;;6.15;;
22072;SDS011;11202;50.916;4.698;2022-12-24T02:52:30;35.90;;;5.78;;
22072;SDS011;11202;50.916;4.698;2022-12-24T02:55:04;27.10;;;5.13;;
22072;SDS011;11202;50.916;4.698;2022-12-24T02:57:45;21.13;;;3.83;;
22072;SDS011;11202;50.916;4.698;2022-12-24T03:00:25;20.10;;;4.03;;
22072;SDS011;11202;50.916;4.698;2022-12-24T03:05:39;13.50;;;4.10;;
22072;SDS011;11202;50.916;4.698;2022-12-24T03:08:28;18.55;;;4.68;;
22072;SDS011;11202;50.916;4.698;2022-12-24T03:11:09;20.80;;;3.97;;
22072;SDS011;11202;50.916;4.698;2022-12-24T03:13:39;24.02;;;4.75;;
22072;SDS011;11202;50.916;4.698;2022-12-24T03:16:12;21.05;;;5.18;;
22072;SDS011;11202;50.916;4.698;2022-12-24T03:18:41;21.55;;;4.30;;
22072;SDS011;11202;50.916;4.698;2022-12-24T03:21:17;17.02;;;3.72;;
22072;SDS011;11202;50.916;4.698;2022-12-24T03:23:45;21.15;;;4.03;;
22072;SDS011;11202;50.916;4.698;2022-12-24T03:26:11;18.40;;;3.88;;
22072;SDS011;11202;50.916;4.698;2022-12-24T03:28:41;22.13;;;4.10;;
22072;SDS011;11202;50.916;4.698;2022-12-24T03:31:08;19.98;;;3.78;;
22072;SDS011;11202;50.916;4.698;2022-12-24T03:33:35;30.00;;;4.70;;
22072;SDS011;11202;50.916;4.698;2022-12-24T03:36:01;16.95;;;4.45;;
22072;SDS011;11202;50.916;4.698;2022-12-24T03:38:31;19.98;;;3.85;;
22072;SDS011;11202;50.916;4.698;2022-12-24T03:40:57;14.48;;;3.72;;
22072;SDS011;11202;50.916;4.698;2022-12-24T03:43:23;26.60;;;4.93;;
22072;SDS011;11202;50.916;4.698;2022-12-24T03:45:51;21.38;;;4.25;;
22072;SDS011;11202;50.916;4.698;2022-12-24T03:48:17;28.70;;;4.95;;
22072;SDS011;11202;50.916;4.698;2022-12-24T03:50:42;32.83;;;5.75;;
22072;SDS011;11202;50.916;4.698;2022-12-24T03:53:08;32.13;;;4.78;;
22072;SDS011;11202;50.916;4.698;2022-12-24T03:55:34;36.17;;;6.60;;
22072;SDS011;11202;50.916;4.698;2022-12-24T03:58:00;24.63;;;4.28;;
22072;SDS011;11202;50.916;4.698;2022-12-24T04:00:28;36.67;;;5.60;;
22072;SDS011;11202;50.916;4.698;2022-12-24T04:02:54;23.23;;;4.85;;
22072;SDS011;11202;50.916;4.698;2022-12-24T04:05:19;31.40;;;5.57;;
22072;SDS011;11202;50.916;4.698;2022-12-24T04:07:47;45.03;;;6.97;;
22072;SDS011;11202;50.916;4.698;2022-12-24T04:10:13;33.05;;;5.72;;
22072;SDS011;11202;50.916;4.698;2022-12-24T04:12:40;34.75;;;6.20;;
22072;SDS011;11202;50.916;4.698;2022-12-24T04:15:06;36.30;;;6.18;;
22072;SDS011;11202;50.916;4.698;2022-12-24T04:17:32;45.88;;;5.47;;
22072;SDS011;11202;50.916;4.698;2022-12-24T04:19:58;33.17;;;5.75;;
22072;SDS011;11202;50.916;4.698;2022-12-24T04:22:24;28.83;;;5.13;;
22072;SDS011;11202;50.916;4.698;2022-12-24T04:24:49;32.45;;;6.05;;
22072;SDS011;11202;50.916;4.698;2022-12-24T04:27:15;30.77;;;5.75;;
22072;SDS011;11202;50.916;4.698;2022-12-24T04:29:41;29.17;;;5.13;;
22072;SDS011;11202;50.916;4.698;2022-12-24T04:32:07;37.13;;;5.72;;
22072;SDS011;11202;50.916;4.698;2022-12-24T04:34:34;47.42;;;6.38;;
22072;SDS011;11202;50.916;4.698;2022-12-24T04:37:00;32.83;;;5.63;;
22072;SDS011;11202;50.916;4.698;2022-12-24T04:39:26;32.38;;;5.28;;
22072;SDS011;11202;50.916;4.698;2022-12-24T04:41:51;35.30;;;4.47;;
22072;SDS011;11202;50.916;4.698;2022-12-24T04:44:17;35.95;;;5.97;;
22072;SDS011;11202;50.916;4.698;2022-12-24T04:46:43;31.25;;;6.00;;
22072;SDS011;11202;50.916;4.698;2022-12-24T04:49:09;30.48;;;5.28;;
22072;SDS011;11202;50.916;4.698;2022-12-24T04:51:34;29.17;;;5.10;;
22072;SDS011;11202;50.916;4.698;2022-12-24T04:54:03;36.38;;;5.43;;
22072;SDS011;11202;50.916;4.698;2022-12-24T04:56:29;33.72;;;5.30;;
22072;SDS011;11202;50.916;4.698;2022-12-24T04:58:59;32.08;;;4.68;;
22072;SDS011;11202;50.916;4.698;2022-12-24T05:01:27;35.15;;;5.72;;
22072;SDS011;11202;50.916;4.698;2022-12-24T05:03:54;46.92;;;6.53;;
22072;SDS011;11202;50.916;4.698;2022-12-24T05:06:21;31.92;;;5.07;;
22072;SDS011;11202;50.916;4.698;2022-12-24T05:08:48;44.55;;;6.47;;
22072;SDS011;11202;50.916;4.698;2022-12-24T05:11:16;31.55;;;4.97;;
22072;SDS011;11202;50.916;4.698;2022-12-24T05:13:42;34.20;;;5.18;;
22072;SDS011;11202;50.916;4.698;2022-12-24T05:16:09;36.03;;;6.45;;
22072;SDS011;11202;50.916;4.698;2022-12-24T05:18:35;44.25;;;5.43;;
22072;SDS011;11202;50.916;4.698;2022-12-24T05:21:01;39.28;;;6.30;;
22072;SDS011;11202;50.916;4.698;2022-12-24T05:23:27;44.22;;;6.35;;
22072;SDS011;11202;50.916;4.698;2022-12-24T05:26:22;39.60;;;5.78;;
22072;SDS011;11202;50.916;4.698;2022-12-24T05:28:55;23.48;;;4.20;;
22072;SDS011;11202;50.916;4.698;2022-12-24T05:31:22;31.80;;;4.65;;
22072;SDS011;11202;50.916;4.698;2022-12-24T05:33:50;31.77;;;5.97;;
22072;SDS011;11202;50.916;4.698;2022-12-24T05:36:15;17.40;;;2.92;;
22072;SDS011;11202;50.916;4.698;2022-12-24T05:38:42;41.03;;;7.32;;
22072;SDS011;11202;50.916;4.698;2022-12-24T05:41:08;38.97;;;5.20;;
22072;SDS011;11202;50.916;4.698;2022-12-24T05:43:34;33.15;;;5.95;;
22072;SDS011;11202;50.916;4.698;2022-12-24T05:46:08;35.65;;;5.53;;
22072;SDS011;11202;50.916;4.698;2022-12-24T05:48:35;37.42;;;5.88;;
22072;SDS011;11202;50.916;4.698;2022-12-24T05:51:04;38.03;;;6.25;;
22072;SDS011;11202;50.916;4.698;2022-12-24T05:53:32;39.40;;;5.85;;
22072;SDS011;11202;50.916;4.698;2022-12-24T05:56:09;30.88;;;4.57;;
22072;SDS011;11202;50.916;4.698;2022-12-24T05:58:40;27.60;;;4.85;;
22072;SDS011;11202;50.916;4.698;2022-12-24T06:01:08;37.70;;;5.45;;
22072;SDS011;11202;50.916;4.698;2022-12-24T06:03:35;39.70;;;6.53;;
22072;SDS011;11202;50.916;4.698;2022-12-24T06:06:02;40.95;;;5.55;;
22072;SDS011;11202;50.916;4.698;2022-12-24T06:08:30;29.27;;;4.93;;
22072;SDS011;11202;50.916;4.698;2022-12-24T06:11:01;31.42;;;4.95;;
22072;SDS011;11202;50.916;4.698;2022-12-24T06:13:30;34.20;;;5.35;;
22072;SDS011;11202;50.916;4.698;2022-12-24T06:15:57;28.63;;;5.18;;
22072;SDS011;11202;50.916;4.698;2022-12-24T06:18:24;38.15;;;6.65;;
22072;SDS011;11202;50.916;4.698;2022-12-24T06:20:51;40.30;;;6.30;;
22072;SDS011;11202;50.916;4.698;2022-12-24T06:23:20;43.78;;;5.60;;
22072;SDS011;11202;50.916;4.698;2022-12-24T06:25:47;47.45;;;7.15;;
22072;SDS011;11202;50.916;4.698;2022-12-24T06:28:13;42.65;;;5.60;;
22072;SDS011;11202;50.916;4.698;2022-12-24T06:30:39;39.10;;;4.82;;
22072;SDS011;11202;50.916;4.698;2022-12-24T06:33:05;31.67;;;5.13;;
22072;SDS011;11202;50.916;4.698;2022-12-24T06:35:31;41.13;;;5.47;;
22072;SDS011;11202;50.916;4.698;2022-12-24T06:37:58;46.63;;;5.95;;
22072;SDS011;11202;50.916;4.698;2022-12-24T06:40:24;44.53;;;7.00;;
22072;SDS011;11202;50.916;4.698;2022-12-24T06:42:53;24.05;;;5.35;;
22072;SDS011;11202;50.916;4.698;2022-12-24T06:45:22;41.60;;;6.68;;
22072;SDS011;11202;50.916;4.698;2022-12-24T06:47:48;36.78;;;5.70;;
22072;SDS011;11202;50.916;4.698;2022-12-24T06:50:16;38.00;;;5.95;;
22072;SDS011;11202;50.916;4.698;2022-12-24T06:52:42;49.15;;;6.03;;
22072;SDS011;11202;50.916;4.698;2022-12-24T06:55:08;36.50;;;6.15;;
22072;SDS011;11202;50.916;4.698;2022-12-24T06:57:33;43.55;;;5.97;;
22072;SDS011;11202;50.916;4.698;2022-12-24T06:59:59;36.05;;;5.78;;
22072;SDS011;11202;50.916;4.698;2022-12-24T07:02:25;30.17;;;4.85;;
22072;SDS011;11202;50.916;4.698;2022-12-24T07:04:51;41.22;;;5.93;;
22072;SDS011;11202;50.916;4.698;2022-12-24T07:07:16;37.95;;;5.55;;
22072;SDS011;11202;50.916;4.698;2022-12-24T07:09:42;44.13;;;6.00;;
22072;SDS011;11202;50.916;4.698;2022-12-24T07:12:08;42.33;;;5.50;;
22072;SDS011;11202;50.916;4.698;2022-12-24T07:14:34;38.42;;;5.50;;
22072;SDS011;11202;50.916;4.698;2022-12-24T07:17:00;49.95;;;6.53;;
22072;SDS011;11202;50.916;4.698;2022-12-24T07:19:26;38.15;;;6.70;;
22072;SDS011;11202;50.916;4.698;2022-12-24T07:21:51;34.80;;;5.00;;
22072;SDS011;11202;50.916;4.698;2022-12-24T07:24:17;37.50;;;5.60;;
22072;SDS011;11202;50.916;4.698;2022-12-24T07:26:44;39.92;;;6.25;;
22072;SDS011;11202;50.916;4.698;2022-12-24T07:29:09;36.05;;;5.70;;
22072;SDS011;11202;50.916;4.698;2022-12-24T07:31:35;40.60;;;6.10;;
22072;SDS011;11202;50.916;4.698;2022-12-24T07:40:44;32.30;;;4.93;;
22072;SDS011;11202;50.916;4.698;2022-12-24T07:43:10;32.15;;;5.25;;
22072;SDS011;11202;50.916;4.698;2022-12-24T07:45:39;42.78;;;6.25;;
22072;SDS011;11202;50.916;4.698;2022-12-24T07:48:04;44.10;;;6.60;;
22072;SDS011;11202;50.916;4.698;2022-12-24T07:50:31;30.95;;;5.13;;
22072;SDS011;11202;50.916;4.698;2022-12-24T07:52:57;36.22;;;6.20;;
22072;SDS011;11202;50.916;4.698;2022-12-24T07:55:23;45.63;;;6.65;;
22072;SDS011;11202;50.916;4.698;2022-12-24T07:57:49;32.50;;;5.57;;
22072;SDS011;11202;50.916;4.698;2022-12-24T08:00:15;28.40;;;5.80;;
22072;SDS011;11202;50.916;4.698;2022-12-24T08:05:07;24.73;;;5.57;;
22072;SDS011;11202;50.916;4.698;2022-12-24T08:07:35;41.13;;;6.38;;
22072;SDS011;11202;50.916;4.698;2022-12-24T08:10:00;39.30;;;6.40;;
22072;SDS011;11202;50.916;4.698;2022-12-24T08:12:29;28.53;;;5.13;;
22072;SDS011;11202;50.916;4.698;2022-12-24T08:14:55;32.45;;;6.45;;
22072;SDS011;11202;50.916;4.698;2022-12-24T08:17:21;35.08;;;5.88;;
22072;SDS011;11202;50.916;4.698;2022-12-24T08:19:49;34.83;;;5.47;;
22072;SDS011;11202;50.916;4.698;2022-12-24T08:22:15;36.33;;;5.53;;
22072;SDS011;11202;50.916;4.698;2022-12-24T08:24:40;52.33;;;6.30;;
22072;SDS011;11202;50.916;4.698;2022-12-24T08:27:06;37.00;;;5.82;;
22072;SDS011;11202;50.916;4.698;2022-12-24T08:29:32;41.92;;;6.65;;
22072;SDS011;11202;50.916;4.698;2022-12-24T08:31:58;36.80;;;5.43;;
22072;SDS011;11202;50.916;4.698;2022-12-24T08:34:24;39.60;;;6.13;;
22072;SDS011;11202;50.916;4.698;2022-12-24T08:36:50;40.80;;;5.50;;
22072;SDS011;11202;50.916;4.698;2022-12-24T08:39:21;39.42;;;5.13;;
22072;SDS011;11202;50.916;4.698;2022-12-24T08:41:49;33.38;;;5.05;;
22072;SDS011;11202;50.916;4.698;2022-12-24T08:44:16;37.33;;;4.93;;
22072;SDS011;11202;50.916;4.698;2022-12-24T08:46:42;38.03;;;7.03;;
22072;SDS011;11202;50.916;4.698;2022-12-24T08:49:11;28.63;;;4.60;;
22072;SDS011;11202;50.916;4.698;2022-12-24T08:51:40;41.60;;;6.17;;
22072;SDS011;11202;50.916;4.698;2022-12-24T08:54:06;40.88;;;6.13;;
22072;SDS011;11202;50.916;4.698;2022-12-24T08:56:36;33.55;;;5.78;;
22072;SDS011;11202;50.916;4.698;2022-12-24T08:59:02;27.50;;;4.68;;
22072;SDS011;11202;50.916;4.698;2022-12-24T09:01:28;33.63;;;5.20;;
22072;SDS011;11202;50.916;4.698;2022-12-24T09:03:54;38.13;;;4.88;;
22072;SDS011;11202;50.916;4.698;2022-12-24T09:06:20;39.08;;;5.60;;
22072;SDS011;11202;50.916;4.698;2022-12-24T09:08:47;37.67;;;5.47;;
22072;SDS011;11202;50.916;4.698;2022-12-24T09:11:15;33.58;;;5.25;;
22072;SDS011;11202;50.916;4.698;2022-12-24T09:13:42;45.08;;;6.55;;
22072;SDS011;11202;50.916;4.698;2022-12-24T09:16:08;40.50;;;5.57;;
22072;SDS011;11202;50.916;4.698;2022-12-24T09:18:36;43.40;;;5.80;;
22072;SDS011;11202;50.916;4.698;2022-12-24T09:21:03;34.08;;;5.88;;
22072;SDS011;11202;50.916;4.698;2022-12-24T09:23:31;41.40;;;5.72;;
22072;SDS011;11202;50.916;4.698;2022-12-24T09:25:58;29.95;;;5.15;;
22072;SDS011;11202;50.916;4.698;2022-12-24T09:28:25;35.13;;;6.35;;
22072;SDS011;11202;50.916;4.698;2022-12-24T09:30:57;39.75;;;5.95;;
22072;SDS011;11202;50.916;4.698;2022-12-24T09:33:27;32.80;;;5.55;;
22072;SDS011;11202;50.916;4.698;2022-12-24T09:35:53;30.80;;;5.80;;
22072;SDS011;11202;50.916;4.698;2022-12-24T09:38:20;40.25;;;6.68;;
22072;SDS011;11202;50.916;4.698;2022-12-24T09:40:47;48.08;;;6.28;;
22072;SDS011;11202;50.916;4.698;2022-12-24T09:43:14;42.28;;;7.10;;
22072;SDS011;11202;50.916;4.698;2022-12-24T09:45:45;37.65;;;6.55;;
22072;SDS011;11202;50.916;4.698;2022-12-24T09:48:27;39.60;;;5.80;;
22072;SDS011;11202;50.916;4.698;2022-12-24T10:03:52;42.90;;;6.90;;
22072;SDS011;11202;50.916;4.698;2022-12-24T10:26:25;28.98;;;5.43;;
22072;SDS011;11202;50.916;4.698;2022-12-24T10:31:34;28.65;;;5.28;;
22072;SDS011;11202;50.916;4.698;2022-12-24T10:34:04;34.05;;;5.78;;
22072;SDS011;11202;50.916;4.698;2022-12-24T10:36:38;31.13;;;6.25;;
22072;SDS011;11202;50.916;4.698;2022-12-24T10:39:04;33.65;;;6.32;;
22072;SDS011;11202;50.916;4.698;2022-12-24T10:41:38;31.55;;;6.43;;
22072;SDS011;11202;50.916;4.698;2022-12-24T10:44:03;40.17;;;6.22;;
22072;SDS011;11202;50.916;4.698;2022-12-24T10:46:32;36.10;;;7.05;;
22072;SDS011;11202;50.916;4.698;2022-12-24T10:49:03;32.17;;;5.78;;
22072;SDS011;11202;50.916;4.698;2022-12-24T11:11:28;36.53;;;5.57;;
22072;SDS011;11202;50.916;4.698;2022-12-24T11:23:47;34.22;;;5.40;;
22072;SDS011;11202;50.916;4.698;2022-12-24T14:59:29;45.15;;;6.30;;
22072;SDS011;11202;50.916;4.698;2022-12-24T15:05:18;33.83;;;7.43;;
22072;SDS011;11202;50.916;4.698;2022-12-24T15:08:03;34.17;;;5.50;;
22072;SDS011;11202;50.916;4.698;2022-12-24T15:10:39;32.00;;;5.47;;
22072;SDS011;11202;50.916;4.698;2022-12-24T15:13:08;33.17;;;6.28;;
22072;SDS011;11202;50.916;4.698;2022-12-24T15:15:37;43.15;;;7.22;;
22072;SDS011;11202;50.916;4.698;2022-12-24T15:18:09;30.40;;;6.15;;
22072;SDS011;11202;50.916;4.698;2022-12-24T15:20:40;43.42;;;7.22;;
22072;SDS011;11202;50.916;4.698;2022-12-24T15:25:43;36.17;;;5.95;;
22072;SDS011;11202;50.916;4.698;2022-12-24T15:28:27;39.50;;;6.43;;
22072;SDS011;11202;50.916;4.698;2022-12-24T15:31:03;40.55;;;7.18;;
22072;SDS011;11202;50.916;4.698;2022-12-24T15:33:36;41.22;;;7.05;;
22072;SDS011;11202;50.916;4.698;2022-12-24T15:36:03;39.75;;;7.28;;
22072;SDS011;11202;50.916;4.698;2022-12-24T15:41:00;38.17;;;7.22;;
22072;SDS011;11202;50.916;4.698;2022-12-24T15:43:28;34.65;;;6.07;;
22072;SDS011;11202;50.916;4.698;2022-12-24T15:45:55;31.08;;;6.57;;
22072;SDS011;11202;50.916;4.698;2022-12-24T15:48:40;45.65;;;8.35;;
22072;SDS011;11202;50.916;4.698;2022-12-24T15:54:31;39.00;;;7.97;;
22072;SDS011;11202;50.916;4.698;2022-12-24T16:00:21;49.78;;;8.38;;
22072;SDS011;11202;50.916;4.698;2022-12-24T16:02:48;40.83;;;8.02;;
22072;SDS011;11202;50.916;4.698;2022-12-24T16:08:01;39.70;;;7.47;;
22072;SDS011;11202;50.916;4.698;2022-12-24T16:10:36;44.17;;;9.57;;
22072;SDS011;11202;50.916;4.698;2022-12-24T16:13:20;46.55;;;10.50;;
22072;SDS011;11202;50.916;4.698;2022-12-24T16:15:49;45.40;;;12.10;;
22072;SDS011;11202;50.916;4.698;2022-12-24T16:18:21;43.65;;;10.40;;
22072;SDS011;11202;50.916;4.698;2022-12-24T16:20:50;48.78;;;10.80;;
22072;SDS011;11202;50.916;4.698;2022-12-24T16:23:20;39.40;;;9.27;;
22072;SDS011;11202;50.916;4.698;2022-12-24T16:25:51;48.85;;;11.10;;
22072;SDS011;11202;50.916;4.698;2022-12-24T16:28:19;53.53;;;10.97;;
22072;SDS011;11202;50.916;4.698;2022-12-24T16:30:46;33.70;;;8.75;;
22072;SDS011;11202;50.916;4.698;2022-12-24T16:33:16;48.15;;;11.25;;
22072;SDS011;11202;50.916;4.698;2022-12-24T16:35:44;50.53;;;13.38;;
22072;SDS011;11202;50.916;4.698;2022-12-24T16:38:11;53.58;;;10.95;;
22072;SDS011;11202;50.916;4.698;2022-12-24T16:40:38;46.33;;;9.85;;
22072;SDS011;11202;50.916;4.698;2022-12-24T16:43:05;45.13;;;10.32;;
22072;SDS011;11202;50.916;4.698;2022-12-24T16:45:49;42.95;;;10.23;;
22072;SDS011;11202;50.916;4.698;2022-12-24T16:48:16;42.17;;;9.43;;
22072;SDS011;11202;50.916;4.698;2022-12-24T16:50:46;50.05;;;8.88;;
22072;SDS011;11202;50.916;4.698;2022-12-24T16:53:15;50.53;;;10.27;;
22072;SDS011;11202;50.916;4.698;2022-12-24T16:55:43;51.72;;;12.00;;
22072;SDS011;11202;50.916;4.698;2022-12-24T16:58:13;46.13;;;11.50;;
22072;SDS011;11202;50.916;4.698;2022-12-24T17:00:41;51.50;;;11.45;;
22072;SDS011;11202;50.916;4.698;2022-12-24T17:03:08;54.80;;;15.20;;
22072;SDS011;11202;50.916;4.698;2022-12-24T17:05:41;53.15;;;12.63;;
22072;SDS011;11202;50.916;4.698;2022-12-24T17:08:08;44.50;;;10.65;;
22072;SDS011;11202;50.916;4.698;2022-12-24T17:10:34;49.97;;;10.90;;
22072;SDS011;11202;50.916;4.698;2022-12-24T17:13:00;47.25;;;10.55;;
22072;SDS011;11202;50.916;4.698;2022-12-24T17:15:26;51.65;;;11.45;;
22072;SDS011;11202;50.916;4.698;2022-12-24T17:17:52;49.13;;;10.07;;
22072;SDS011;11202;50.916;4.698;2022-12-24T17:20:18;45.45;;;10.73;;
22072;SDS011;11202;50.916;4.698;2022-12-24T17:22:43;48.28;;;12.20;;
22072;SDS011;11202;50.916;4.698;2022-12-24T17:25:11;48.10;;;12.57;;
22072;SDS011;11202;50.916;4.698;2022-12-24T17:27:38;47.78;;;12.88;;
22072;SDS011;11202;50.916;4.698;2022-12-24T17:30:07;48.70;;;12.00;;
22072;SDS011;11202;50.916;4.698;2022-12-24T17:32:33;48.05;;;11.82;;
22072;SDS011;11202;50.916;4.698;2022-12-24T17:37:53;55.08;;;11.32;;
22072;SDS011;11202;50.916;4.698;2022-12-24T17:40:19;55.20;;;11.27;;
22072;SDS011;11202;50.916;4.698;2022-12-24T17:42:47;57.00;;;10.98;;
22072;SDS011;11202;50.916;4.698;2022-12-24T17:45:13;48.65;;;11.43;;
22072;SDS011;11202;50.916;4.698;2022-12-24T17:47:39;47.47;;;11.88;;
22072;SDS011;11202;50.916;4.698;2022-12-24T17:50:05;46.08;;;11.70;;
22072;SDS011;11202;50.916;4.698;2022-12-24T17:52:32;42.03;;;10.77;;
22072;SDS011;11202;50.916;4.698;2022-12-24T17:54:58;55.22;;;11.45;;
22072;SDS011;11202;50.916;4.698;2022-12-24T17:57:26;51.13;;;11.93;;
22072;SDS011;11202;50.916;4.698;2022-12-24T17:59:52;46.95;;;12.20;;
22072;SDS011;11202;50.916;4.698;2022-12-24T18:02:18;48.83;;;10.48;;
22072;SDS011;11202;50.916;4.698;2022-12-24T18:04:44;47.33;;;11.88;;
22072;SDS011;11202;50.916;4.698;2022-12-24T18:07:10;47.22;;;10.90;;
22072;SDS011;11202;50.916;4.698;2022-12-24T18:09:35;45.80;;;11.73;;
22072;SDS011;11202;50.916;4.698;2022-12-24T18:12:01;55.22;;;11.45;;
22072;SDS011;11202;50.916;4.698;2022-12-24T18:14:27;51.45;;;12.07;;
22072;SDS011;11202;50.916;4.698;2022-12-24T18:16:52;56.55;;;12.32;;
22072;SDS011;11202;50.916;4.698;2022-12-24T18:19:18;51.78;;;12.70;;
22072;SDS011;11202;50.916;4.698;2022-12-24T18:21:47;45.78;;;11.98;;
22072;SDS011;11202;50.916;4.698;2022-12-24T18:24:13;54.72;;;12.88;;
22072;SDS011;11202;50.916;4.698;2022-12-24T18:26:39;47.03;;;11.10;;
22072;SDS011;11202;50.916;4.698;2022-12-24T18:29:04;56.95;;;11.05;;
22072;SDS011;11202;50.916;4.698;2022-12-24T18:31:32;49.13;;;10.77;;
22072;SDS011;11202;50.916;4.698;2022-12-24T18:33:59;43.40;;;9.45;;
22072;SDS011;11202;50.916;4.698;2022-12-24T18:36:26;57.50;;;11.55;;
22072;SDS011;11202;50.916;4.698;2022-12-24T18:38:51;48.47;;;10.63;;
22072;SDS011;11202;50.916;4.698;2022-12-24T18:41:19;57.05;;;10.63;;
22072;SDS011;11202;50.916;4.698;2022-12-24T18:43:47;50.90;;;11.55;;
22072;SDS011;11202;50.916;4.698;2022-12-24T18:46:14;50.83;;;11.02;;
22072;SDS011;11202;50.916;4.698;2022-12-24T18:48:41;51.70;;;11.15;;
22072;SDS011;11202;50.916;4.698;2022-12-24T18:51:07;47.33;;;10.57;;
22072;SDS011;11202;50.916;4.698;2022-12-24T18:53:33;49.40;;;10.80;;
22072;SDS011;11202;50.916;4.698;2022-12-24T18:56:07;62.13;;;12.05;;
22072;SDS011;11202;50.916;4.698;2022-12-24T18:58:39;40.67;;;10.40;;
22072;SDS011;11202;50.916;4.698;2022-12-24T19:01:25;43.22;;;10.05;;
22072;SDS011;11202;50.916;4.698;2022-12-24T19:03:53;53.17;;;11.40;;
22072;SDS011;11202;50.916;4.698;2022-12-24T19:06:19;50.08;;;10.90;;
22072;SDS011;11202;50.916;4.698;2022-12-24T19:08:48;43.20;;;12.15;;
22072;SDS011;11202;50.916;4.698;2022-12-24T19:11:14;53.53;;;13.25;;
22072;SDS011;11202;50.916;4.698;2022-12-24T19:13:40;50.25;;;13.77;;
22072;SDS011;11202;50.916;4.698;2022-12-24T19:16:11;45.67;;;13.82;;
22072;SDS011;11202;50.916;4.698;2022-12-24T19:18:36;50.67;;;15.52;;
22072;SDS011;11202;50.916;4.698;2022-12-24T19:21:03;49.40;;;13.70;;
22072;SDS011;11202;50.916;4.698;2022-12-24T19:23:30;48.10;;;13.90;;
22072;SDS011;11202;50.916;4.698;2022-12-24T19:25:56;48.70;;;13.65;;
22072;SDS011;11202;50.916;4.698;2022-12-24T19:28:22;58.50;;;14.63;;
22072;SDS011;11202;50.916;4.698;2022-12-24T19:30:48;54.85;;;13.02;;
22072;SDS011;11202;50.916;4.698;2022-12-24T19:33:14;57.75;;;13.27;;
22072;SDS011;11202;50.916;4.698;2022-12-24T19:35:39;47.13;;;13.02;;
22072;SDS011;11202;50.916;4.698;2022-12-24T19:38:05;48.08;;;13.52;;
22072;SDS011;11202;50.916;4.698;2022-12-24T19:40:36;39.45;;;11.50;;
22072;SDS011;11202;50.916;4.698;2022-12-24T19:43:03;46.20;;;12.52;;
22072;SDS011;11202;50.916;4.698;2022-12-24T19:45:31;45.33;;;11.68;;
22072;SDS011;11202;50.916;4.698;2022-12-24T19:47:57;56.13;;;12.65;;
22072;SDS011;11202;50.916;4.698;2022-12-24T19:50:23;53.85;;;13.57;;
22072;SDS011;11202;50.916;4.698;2022-12-24T19:52:49;39.17;;;11.15;;
22072;SDS011;11202;50.916;4.698;2022-12-24T19:55:17;40.35;;;11.20;;
22072;SDS011;11202;50.916;4.698;2022-12-24T19:57:43;44.20;;;10.95;;
22072;SDS011;11202;50.916;4.698;2022-12-24T20:00:08;45.70;;;11.00;;
22072;SDS011;11202;50.916;4.698;2022-12-24T20:02:36;51.08;;;11.63;;